Time;durP1;ratioP1;P1;durP2;ratioP2;P2;SDS_P1;SDS_P2;PMS_P1;PMS_P2;Temp;Humidity;BMP_temperature;BMP_pressure;BME280_temperature;BME280_humidity;BME280_pressure;Samples;Min_cycle;Max_cycle;Signal;HPM_P1;HPM_P2
2023/09/24 00:02:14;;;;;;;1.13;1.08;;;;;;;19.40;100.00;100484.63;5028472;28;20034;-87
2023/09/24 00:04:42;;;;;;;1.83;0.88;;;;;;;19.54;100.00;100511.59;5035820;28;20037;-86
2023/09/24 00:07:07;;;;;;;0.95;0.77;;;;;;;19.25;100.00;100488.69;5066416;28;20051;-88
2023/09/24 00:09:33;;;;;;;0.80;0.80;;;;;;;18.74;100.00;100409.72;5061915;28;20048;-87
2023/09/24 00:11:58;;;;;;;2.20;2.03;;;;;;;18.84;100.00;100434.25;5046685;28;20029;-88
2023/09/24 00:14:28;;;;;;;3.53;1.60;;;;;;;18.70;100.00;100426.69;5047585;28;20045;-87
2023/09/24 00:16:53;;;;;;;1.33;1.02;;;;;;;18.60;100.00;100439.44;5046813;28;20069;-87
2023/09/24 00:19:19;;;;;;;0.73;0.73;;;;;;;18.52;100.00;100414.91;5045411;28;20048;-87
2023/09/24 00:21:46;;;;;;;2.95;1.08;;;;;;;18.98;100.00;100493.16;5046753;28;20112;-86
2023/09/24 00:24:12;;;;;;;2.45;1.67;;;;;;;19.03;100.00;100512.47;5056121;28;20024;-87
2023/09/24 00:26:38;;;;;;;1.10;0.95;;;;;;;18.67;100.00;100461.38;5067541;28;20078;-88
2023/09/24 00:29:04;;;;;;;1.33;0.95;;;;;;;18.55;100.00;100452.00;5075687;28;20056;-87
2023/09/24 00:31:30;;;;;;;1.23;1.13;;;;;;;18.91;100.00;100507.56;5062747;28;20057;-87
2023/09/24 00:33:57;;;;;;;1.38;0.98;;;;;;;18.39;100.00;100426.84;5056957;28;20037;-87
2023/09/24 00:36:22;;;;;;;3.30;1.80;;;;;;;18.58;100.00;100481.13;5060133;28;20041;-87
2023/09/24 00:38:49;;;;;;;1.05;0.95;;;;;;;18.45;100.00;100442.56;5046373;28;20118;-89
2023/09/24 00:41:15;;;;;;;0.85;0.85;;;;;;;18.54;100.00;100459.13;5028462;28;20225;-86
2023/09/24 00:43:43;;;;;;;4.32;1.58;;;;;;;18.96;100.00;100529.56;5046886;28;20092;-87
2023/09/24 00:46:09;;;;;;;0.80;0.77;;;;;;;18.25;100.00;100425.47;5058499;28;20487;-87
2023/09/24 00:48:36;;;;;;;0.45;0.45;;;;;;;18.93;100.00;100546.47;5064053;28;20052;-88
2023/09/24 00:51:13;;;;;;;0.63;0.60;;;;;;;18.38;100.00;100433.94;5066390;28;20033;-84
2023/09/24 00:53:40;;;;;;;1.20;0.98;;;;;;;18.61;100.00;100496.09;5057115;28;20089;-88
2023/09/24 00:56:05;;;;;;;3.22;1.52;;;;;;;18.83;100.00;100525.56;5065955;28;20105;-86
2023/09/24 00:58:34;;;;;;;1.30;1.20;;;;;;;18.25;100.00;100427.28;5065455;28;20060;-87
2023/09/24 01:01:00;;;;;;;2.53;1.77;;;;;;;18.37;100.00;100456.09;5057821;28;20144;-87
2023/09/24 01:03:26;;;;;;;1.95;1.15;;;;;;;18.19;100.00;100443.41;5069093;28;20033;-88
2023/09/24 01:05:52;;;;;;;0.35;0.35;;;;;;;18.29;100.00;100461.66;5061081;28;20124;-86
2023/09/24 01:08:23;;;;;;;2.88;1.77;;;;;;;18.36;100.00;100470.31;5038130;28;20037;-87
2023/09/24 01:10:49;;;;;;;1.73;1.42;;;;;;;18.83;100.00;100563.66;5048984;28;20091;-86
2023/09/24 01:13:20;;;;;;;1.45;1.35;;;;;;;18.71;100.00;100564.03;5050005;28;20049;-87
2023/09/24 01:15:52;;;;;;;1.48;1.38;;;;;;;18.24;100.00;100484.84;5049887;28;20037;-87
2023/09/24 01:18:19;;;;;;;2.08;1.88;;;;;;;18.81;100.00;100592.09;5050098;28;20048;-88
2023/09/24 01:20:45;;;;;;;1.30;1.20;;;;;;;18.61;100.00;100573.19;5050552;28;20163;-88
2023/09/24 01:23:12;;;;;;;1.70;1.52;;;;;;;18.17;100.00;100483.31;5049851;28;20516;-87
2023/09/24 01:25:40;;;;;;;1.48;1.38;;;;;;;18.54;100.00;100568.06;5049703;28;20041;-87
2023/09/24 01:28:06;;;;;;;1.52;1.42;;;;;;;18.72;100.00;100606.50;5068063;28;20121;-87
2023/09/24 01:30:33;;;;;;;2.45;2.25;;;;;;;18.44;100.00;100550.66;5076641;28;20128;-86
2023/09/24 01:32:58;;;;;;;1.90;1.00;;;;;;;18.49;100.00;100538.09;5069555;28;20032;-86
2023/09/24 01:35:27;;;;;;;2.15;1.88;;;;;;;18.54;100.00;100584.03;5052523;28;20040;-88
2023/09/24 01:38:03;;;;;;;1.52;1.42;;;;;;;18.73;100.00;100594.06;5049475;28;20045;-87
2023/09/24 01:40:30;;;;;;;1.48;1.33;;;;;;;17.85;100.00;100437.31;5043171;28;20090;-87
2023/09/24 01:43:00;;;;;;;1.58;1.05;;;;;;;18.72;100.00;100593.19;5050434;28;20044;-87
2023/09/24 01:45:26;;;;;;;0.80;0.77;;;;;;;18.11;100.00;100483.47;5055327;28;20899;-87
2023/09/24 01:47:52;;;;;;;1.92;1.48;;;;;;;18.66;100.00;100574.81;5059938;28;20029;-86
2023/09/24 01:50:18;;;;;;;0.88;0.88;;;;;;;17.47;100.00;100380.03;5049715;28;20049;-88
2023/09/24 01:52:45;;;;;;;1.02;1.02;;;;;;;18.66;100.00;100564.16;5050284;28;20105;-87
2023/09/24 01:55:15;;;;;;;0.95;0.75;;;;;;;18.10;100.00;100487.06;5056514;28;20041;-87
2023/09/24 01:57:44;;;;;;;1.48;1.38;;;;;;;18.54;100.00;100581.34;5069808;28;20057;-85
2023/09/24 02:00:18;;;;;;;1.48;1.38;;;;;;;18.41;100.00;100532.16;5049972;28;20128;-87
2023/09/24 02:02:44;;;;;;;1.10;1.00;;;;;;;18.64;100.00;100599.69;5050373;28;20032;-86
2023/09/24 02:05:10;;;;;;;3.33;3.03;;;;;;;18.68;100.00;100615.50;5049048;28;20049;-88
2023/09/24 02:07:40;;;;;;;2.85;2.58;;;;;;;18.69;100.00;100606.59;5048924;28;20064;-87
2023/09/24 02:10:06;;;;;;;2.25;1.33;;;;;;;17.97;100.00;100496.28;5049008;28;20052;-87
2023/09/24 02:12:37;;;;;;;1.38;1.27;;;;;;;17.88;100.00;100476.19;5049486;28;20068;-86
2023/09/24 02:15:10;;;;;;;4.00;2.63;;;;;;;18.51;100.00;100576.13;5048972;28;20775;-85
2023/09/24 02:17:39;;;;;;;2.28;1.35;;;;;;;18.65;100.00;100604.06;5049661;28;20079;-88
2023/09/24 02:22:57;;;;;;;0.95;0.95;;;;;;;18.12;100.00;100514.41;5048104;28;20045;-88
2023/09/24 02:25:24;;;;;;;2.13;1.70;;;;;;;18.45;100.00;100573.66;5040805;28;20049;-88
2023/09/24 02:27:50;;;;;;;2.40;1.80;;;;;;;18.42;100.00;100573.72;5055587;28;20037;-87
2023/09/24 02:30:20;;;;;;;1.70;1.60;;;;;;;18.48;100.00;100585.97;5062690;28;20485;-86
2023/09/24 02:32:46;;;;;;;1.55;1.45;;;;;;;18.01;100.00;100506.78;5049533;28;20029;-88
2023/09/24 02:35:16;;;;;;;3.65;2.42;;;;;;;18.61;100.00;100610.38;5048605;28;20112;-87
2023/09/24 02:38:01;;;;;;;2.05;1.83;;;;;;;18.39;100.00;100554.38;5048523;28;20152;-86
2023/09/24 02:40:27;;;;;;;2.55;2.17;;;;;;;18.48;100.00;100578.00;5048444;28;20515;-87
2023/09/24 02:43:01;;;;;;;0.60;0.60;;;;;;;18.57;100.00;100585.72;5048625;28;20165;-87
2023/09/24 02:45:33;;;;;;;1.40;1.30;;;;;;;18.50;100.00;100570.88;5053508;28;20430;-87
2023/09/24 02:47:59;;;;;;;2.10;1.90;;;;;;;18.07;100.00;100503.06;5066991;28;20028;-85
2023/09/24 02:50:27;;;;;;;5.25;3.83;;;;;;;18.67;100.00;100596.94;5068595;28;20051;-88
2023/09/24 02:52:57;;;;;;;2.50;2.13;;;;;;;18.85;100.00;100600.84;5067767;28;20127;-87
2023/09/24 02:55:25;;;;;;;2.53;2.30;;;;;;;18.21;100.00;100497.34;5053008;28;20057;-87
2023/09/24 02:57:51;;;;;;;2.60;2.40;;;;;;;18.76;100.00;100605.53;5075311;28;20044;-87
2023/09/24 03:00:19;;;;;;;1.63;1.52;;;;;;;17.69;100.00;100426.25;5074800;28;20040;-85
2023/09/24 03:02:48;;;;;;;2.80;2.58;;;;;;;18.20;100.00;100507.09;5073327;28;20071;-85
2023/09/24 03:05:19;;;;;;;2.42;1.67;;;;;;;18.27;100.00;100506.00;5068260;28;20090;-86
2023/09/24 03:07:45;;;;;;;1.33;1.02;;;;;;;18.77;100.00;100595.75;5049612;28;20048;-85
2023/09/24 03:10:13;;;;;;;1.20;1.05;;;;;;;17.89;100.00;100448.75;5067359;28;20479;-88
2023/09/24 03:12:39;;;;;;;1.75;1.42;;;;;;;18.40;100.00;100513.59;5060897;28;20503;-89
2023/09/24 03:15:05;;;;;;;2.08;1.75;;;;;;;19.02;100.00;100605.63;5047413;28;20044;-86
2023/09/24 03:17:34;;;;;;;1.88;1.38;;;;;;;19.02;100.00;100600.31;5048769;28;20033;-88
2023/09/24 03:20:00;;;;;;;1.50;1.30;;;;;;;18.40;100.00;100487.03;5047957;28;20049;-86
2023/09/24 03:22:25;;;;;;;3.75;2.42;;;;;;;18.43;100.00;100479.84;5047873;28;20787;-87
2023/09/24 03:24:51;;;;;;;1.92;0.90;;;;;;;18.75;100.00;100528.44;5047953;28;20508;-86
2023/09/24 03:27:17;;;;;;;2.72;1.30;;;;;;;18.68;100.00;100524.22;5050266;28;20036;-87
2023/09/24 03:29:43;;;;;;;8.15;3.67;;;;;;;19.09;100.00;100586.75;5067723;28;20040;-88
2023/09/24 03:32:09;;;;;;;1.45;1.27;;;;;;;18.12;100.00;100418.81;5067027;28;20469;-88
2023/09/24 03:34:34;;;;;;;1.42;1.25;;;;;;;19.24;100.00;100597.81;5061441;28;20079;-87
2023/09/24 03:37:00;;;;;;;2.10;1.90;;;;;;;18.84;100.00;100552.09;5067191;28;20047;-87
2023/09/24 03:39:25;;;;;;;2.42;2.22;;;;;;;18.68;100.00;100482.59;5048251;28;20886;-87
2023/09/24 03:41:51;;;;;;;1.38;1.27;;;;;;;18.81;100.00;100491.06;5029646;28;20033;-88
2023/09/24 03:44:17;;;;;;;2.65;2.25;;;;;;;18.71;100.00;100486.94;5029530;28;20135;-87
2023/09/24 03:46:42;;;;;;;2.65;2.45;;;;;;;18.66;100.00;100486.19;5042744;28;20873;-89
2023/09/24 03:49:08;;;;;;;2.85;2.28;;;;;;;19.05;100.00;100529.25;5065014;28;20048;-87
2023/09/24 03:51:33;;;;;;;1.15;1.05;;;;;;;19.36;100.00;100574.34;5048925;28;20040;-87
2023/09/24 03:53:58;;;;;;;2.13;1.75;;;;;;;18.85;100.00;100471.44;5053742;28;20037;-87
2023/09/24 03:56:24;;;;;;;2.67;2.17;;;;;;;18.83;100.00;100467.94;5046971;28;20148;-88
2023/09/24 03:58:50;;;;;;;5.28;2.10;;;;;;;19.10;100.00;100498.03;5047063;28;20052;-88
2023/09/24 04:01:17;;;;;;;0.70;0.70;;;;;;;18.86;100.00;100456.34;5029314;28;20045;-87
2023/09/24 04:03:43;;;;;;;1.95;1.75;;;;;;;19.39;100.00;100584.00;5047296;28;20458;-88
2023/09/24 04:06:10;;;;;;;1.80;1.67;;;;;;;18.73;100.00;100437.22;5047172;28;20033;-87
2023/09/24 04:08:36;;;;;;;1.75;1.20;;;;;;;18.82;100.00;100444.06;5048092;28;20037;-87
2023/09/24 04:11:06;;;;;;;1.38;1.27;;;;;;;18.75;100.00;100456.66;5047135;28;20148;-83
2023/09/24 04:13:32;;;;;;;2.50;2.30;;;;;;;18.67;100.00;100440.97;5047155;28;20049;-85
2023/09/24 04:16:08;;;;;;;3.38;2.13;;;;;;;18.83;100.00;100465.28;5047060;28;20032;-89
2023/09/24 04:18:35;;;;;;;3.50;2.10;;;;;;;19.25;100.00;100527.75;5046993;28;20044;-88
2023/09/24 04:21:01;;;;;;;2.67;2.47;;;;;;;19.35;100.00;100556.63;5047628;28;20029;-88
2023/09/24 04:23:28;;;;;;;1.70;1.60;;;;;;;19.22;100.00;100538.47;5058941;28;20052;-88
2023/09/24 04:25:54;;;;;;;1.92;1.73;;;;;;;19.30;100.00;100565.69;5066577;28;20068;-87
2023/09/24 04:28:20;;;;;;;2.45;2.25;;;;;;;19.17;100.00;100543.94;5048925;28;20079;-88
2023/09/24 04:30:46;;;;;;;1.98;1.65;;;;;;;19.35;100.00;100561.09;5066563;28;20037;-87
2023/09/24 04:33:12;;;;;;;3.65;1.58;;;;;;;19.40;100.00;100575.97;5041649;28;20400;-87
2023/09/24 04:35:38;;;;;;;1.58;1.48;;;;;;;18.80;100.00;100477.81;5067421;28;20583;-86
2023/09/24 04:38:07;;;;;;;1.73;1.50;;;;;;;19.49;100.00;100581.91;5051308;28;20037;-88
2023/09/24 04:40:33;;;;;;;5.82;4.70;;;;;;;19.00;100.00;100499.28;5046763;28;20052;-85
2023/09/24 04:42:59;;;;;;;2.17;2.03;;;;;;;18.77;100.00;100489.41;5047046;28;20060;-86
2023/09/24 04:45:25;;;;;;;3.10;2.20;;;;;;;18.56;100.00;100480.31;5053810;28;20369;-86
2023/09/24 04:47:52;;;;;;;3.85;2.88;;;;;;;19.16;100.00;100582.97;5052023;28;20033;-86
2023/09/24 04:50:18;;;;;;;2.08;1.80;;;;;;;19.21;100.00;100614.75;5053352;28;20404;-86
2023/09/24 04:52:47;;;;;;;2.10;1.75;;;;;;;19.37;100.00;100593.84;5049582;28;20079;-87
2023/09/24 04:55:13;;;;;;;1.85;1.70;;;;;;;19.34;100.00;100583.31;5057370;28;20370;-86
2023/09/24 04:57:39;;;;;;;3.40;2.63;;;;;;;19.29;100.00;100574.56;5070057;28;20109;-87
2023/09/24 05:00:05;;;;;;;2.22;2.03;;;;;;;18.96;100.00;100510.94;5071282;28;20028;-88
2023/09/24 05:02:31;;;;;;;1.25;0.88;;;;;;;19.24;100.00;100547.25;5071946;28;20378;-89
2023/09/24 05:04:56;;;;;;;2.05;1.85;;;;;;;19.53;100.00;100581.75;5066709;28;20041;-87
2023/09/24 05:07:22;;;;;;;1.52;1.40;;;;;;;19.30;100.00;100520.47;5032064;28;20102;-85
2023/09/24 05:09:47;;;;;;;5.07;2.83;;;;;;;19.71;100.00;100582.91;5050587;28;20128;-88
2023/09/24 05:12:13;;;;;;;3.70;3.03;;;;;;;19.00;100.00;100495.75;5050736;28;20068;-86
2023/09/24 05:14:39;;;;;;;4.00;1.77;;;;;;;19.40;100.00;100546.69;5050812;28;20068;-88
2023/09/24 05:17:05;;;;;;;2.55;2.35;;;;;;;19.66;100.00;100591.97;5050294;28;20048;-88
2023/09/24 05:19:31;;;;;;;0.77;0.77;;;;;;;18.93;100.00;100469.38;5050465;28;20044;-88
2023/09/24 05:21:56;;;;;;;2.35;2.15;;;;;;;19.38;100.00;100539.69;5050376;28;20052;-88
2023/09/24 05:24:22;;;;;;;1.27;1.17;;;;;;;19.18;100.00;100492.50;5050207;28;20049;-86
2023/09/24 05:26:47;;;;;;;1.17;1.08;;;;;;;19.56;100.00;100578.97;5050308;28;20484;-86
2023/09/24 05:29:12;;;;;;;3.75;3.40;;;;;;;19.25;100.00;100504.66;5078059;28;20463;-87
2023/09/24 05:31:38;;;;;;;2.03;1.92;;;;;;;19.18;100.00;100485.38;5055891;28;20042;-88
2023/09/24 05:34:05;;;;;;;2.33;2.13;;;;;;;19.55;100.00;100532.00;5037687;28;20045;-85
2023/09/24 05:36:31;;;;;;;1.60;1.50;;;;;;;19.63;100.00;100514.88;5039436;28;20041;-86
2023/09/24 05:38:57;;;;;;;1.42;1.33;;;;;;;19.33;100.00;100461.81;5050328;28;20044;-88
2023/09/24 05:41:23;;;;;;;2.30;2.10;;;;;;;19.85;100.00;100557.59;5031984;28;20677;-87
2023/09/24 05:43:48;;;;;;;2.13;1.95;;;;;;;20.13;100.00;100581.44;5057799;28;20049;-87
2023/09/24 05:46:14;;;;;;;1.08;0.93;;;;;;;19.56;100.00;100519.53;5068902;28;20135;-86
2023/09/24 05:48:40;;;;;;;3.65;2.70;;;;;;;20.15;100.00;100591.09;5057955;28;20052;-87
2023/09/24 05:51:07;;;;;;;0.77;0.77;;;;;;;19.66;100.00;100472.16;5073725;28;20032;-86
2023/09/24 05:53:33;;;;;;;2.35;1.98;;;;;;;20.16;100.00;100544.91;5064623;28;20055;-87
2023/09/24 05:56:00;;;;;;;2.33;1.70;;;;;;;20.09;100.00;100514.09;5047911;28;20049;-86
2023/09/24 05:58:27;;;;;;;1.90;1.80;;;;;;;20.12;100.00;100494.44;5063732;28;20132;-88
2023/09/24 06:00:56;;;;;;;11.65;2.10;;;;;;;20.21;100.00;100497.63;5055285;28;20045;-89
2023/09/24 06:03:22;;;;;;;3.22;2.92;;;;;;;20.58;100.00;100572.66;5032517;28;20128;-89
2023/09/24 06:05:48;;;;;;;0.95;0.82;;;;;;;19.85;100.00;100454.59;5049792;28;20033;-88
2023/09/24 06:08:13;;;;;;;3.33;1.80;;;;;;;20.14;100.00;100484.63;5052973;28;20045;-86
2023/09/24 06:10:45;;;;;;;1.98;1.88;;;;;;;20.85;100.00;100574.22;5058389;28;20057;-88
2023/09/24 06:13:13;;;;;;;4.15;3.53;;;;;;;20.87;100.00;100560.84;5061704;28;20049;-85
2023/09/24 06:15:43;;;;;;;2.25;2.08;;;;;;;20.55;100.00;100485.63;5056476;28;20461;-87
2023/09/24 06:18:11;;;;;;;18.55;2.72;;;;;;;20.65;100.00;100484.38;5053304;28;20044;-86
2023/09/24 06:20:41;;;;;;;3.08;2.33;;;;;;;19.94;100.00;100382.34;5033168;28;20149;-87
2023/09/24 06:23:08;;;;;;;1.15;0.90;;;;;;;20.68;100.00;100491.38;5056746;28;20837;-86
2023/09/24 06:25:34;;;;;;;0.40;0.38;;;;;;;20.65;100.00;100463.03;5062376;28;20139;-85
2023/09/24 06:28:00;;;;;;;2.15;1.80;;;;;;;20.87;100.00;100526.16;5068444;28;20053;-86
2023/09/24 06:30:27;;;;;;;1.15;1.05;;;;;;;20.44;100.00;100413.25;5064847;28;20139;-87
2023/09/24 06:32:52;;;;;;;4.53;2.50;;;;;;;20.74;100.00;100491.09;5068929;28;20360;-87
2023/09/24 06:35:18;;;;;;;0.95;0.90;;;;;;;21.26;100.00;100566.34;5068807;28;20037;-87
2023/09/24 06:37:43;;;;;;;2.80;2.55;;;;;;;21.35;100.00;100569.53;5068819;28;20476;-88
2023/09/24 06:40:10;;;;;;;1.35;1.25;;;;;;;21.42;100.00;100549.69;5050327;28;20044;-88
2023/09/24 06:42:37;;;;;;;2.55;2.10;;;;;;;21.58;100.00;100569.47;5069484;28;20101;-87
2023/09/24 06:45:04;;;;;;;0.40;0.38;;;;;;;21.19;100.00;100507.94;5046119;28;20040;-84
2023/09/24 06:47:34;;;;;;;2.78;2.25;;;;;;;21.26;100.00;100550.34;5037501;28;20037;-87
2023/09/24 06:49:59;;;;;;;1.63;1.52;;;;;;;21.36;100.00;100547.28;5033309;28;20049;-88
2023/09/24 06:52:26;;;;;;;1.10;1.02;;;;;;;20.99;100.00;100472.28;5028514;28;20053;-87
2023/09/24 06:54:52;;;;;;;0.50;0.50;;;;;;;21.81;100.00;100573.81;5038115;28;20052;-88
2023/09/24 06:57:17;;;;;;;1.45;1.17;;;;;;;21.86;100.00;100574.47;5043753;28;20470;-88
2023/09/24 06:59:43;;;;;;;2.65;2.08;;;;;;;21.56;100.00;100512.59;5029441;28;20419;-88
2023/09/24 07:02:08;;;;;;;4.95;2.15;;;;;;;21.80;100.00;100549.84;5027743;28;20052;-89
2023/09/24 07:04:34;;;;;;;1.90;1.65;;;;;;;21.66;100.00;100564.69;5027950;28;20045;-88
2023/09/24 07:06:59;;;;;;;1.27;1.17;;;;;;;21.98;100.00;100570.38;5027708;28;20374;-86
2023/09/24 07:09:25;;;;;;;2.08;1.77;;;;;;;21.99;100.00;100545.41;5028220;28;20045;-88
2023/09/24 07:11:50;;;;;;;0.88;0.75;;;;;;;22.33;100.00;100566.13;5028905;28;20044;-86
2023/09/24 07:14:18;;;;;;;0.68;0.68;;;;;;;21.99;100.00;100489.28;5027617;28;20123;-89
2023/09/24 07:16:44;;;;;;;1.27;1.15;;;;;;;22.02;100.00;100469.56;5042218;28;20131;-87
2023/09/24 07:19:09;;;;;;;1.73;1.20;;;;;;;22.03;100.00;100434.78;5047638;28;20047;-86
2023/09/24 07:21:35;;;;;;;1.15;1.05;;;;;;;22.38;100.00;100499.06;5058742;28;20047;-89
2023/09/24 07:24:01;;;;;;;1.65;1.55;;;;;;;22.06;100.00;100447.97;5071820;28;20343;-86
2023/09/24 07:26:28;;;;;;;1.63;1.52;;;;;;;22.14;100.00;100452.97;5041794;28;20037;-87
2023/09/24 07:28:53;;;;;;;2.05;1.85;;;;;;;22.81;100.00;100531.78;5046988;28;20059;-89
2023/09/24 07:31:24;;;;;;;0.63;0.63;;;;;;;22.95;100.00;100517.72;5046438;28;20049;-88
2023/09/24 07:33:51;;;;;;;1.55;1.30;;;;;;;22.75;100.00;100475.88;5054591;28;20481;-89
2023/09/24 07:36:17;;;;;;;1.25;0.93;;;;;;;22.99;100.00;100487.19;5052767;28;20404;-88
2023/09/24 07:38:43;;;;;;;2.40;2.15;;;;;;;22.95;100.00;100466.88;5047963;28;20033;-87
2023/09/24 07:41:09;;;;;;;1.10;1.00;;;;;;;22.78;100.00;100427.59;5030805;28;20057;-88
2023/09/24 07:43:39;;;;;;;3.65;1.83;;;;;;;23.38;100.00;100518.25;5042205;28;20061;-87
2023/09/24 07:46:06;;;;;;;1.48;1.38;;;;;;;22.90;100.00;100428.78;5024473;28;20497;-88
2023/09/24 07:48:33;;;;;;;1.17;1.08;;;;;;;23.31;100.00;100498.94;5027630;28;20057;-88
2023/09/24 07:50:59;;;;;;;0.80;0.70;;;;;;;23.07;100.00;100470.78;5027294;28;20374;-86
2023/09/24 07:53:24;;;;;;;1.48;1.38;;;;;;;22.91;100.00;100447.41;5027664;28;20029;-87
2023/09/24 07:56:08;;;;;;;0.52;0.30;;;;;;;23.47;100.00;100538.34;5027879;28;20091;-87
2023/09/24 07:58:38;;;;;;;0.85;0.85;;;;;;;23.58;100.00;100546.69;5027612;28;20042;-87
2023/09/24 08:01:09;;;;;;;0.30;0.30;;;;;;;22.78;100.00;100411.53;5009194;28;20044;-87
2023/09/24 08:03:35;;;;;;;0.80;0.80;;;;;;;23.62;100.00;100497.34;5028671;28;20595;-85
2023/09/24 08:06:02;;;;;;;2.08;1.70;;;;;;;23.72;100.00;100509.31;5011951;28;20097;-87
2023/09/24 08:08:29;;;;;;;1.55;1.45;;;;;;;23.44;100.00;100428.69;5032046;28;20078;-86
2023/09/24 08:10:55;;;;;;;1.30;1.20;;;;;;;23.49;100.00;100416.78;5033641;28;20049;-89
2023/09/24 08:13:21;;;;;;;1.38;1.20;;;;;;;23.65;100.00;100429.34;5014664;28;20118;-87
2023/09/24 08:15:47;;;;;;;1.02;0.85;;;;;;;23.69;100.00;100446.97;5013859;28;20038;-87
2023/09/24 08:18:13;;;;;;;2.65;2.45;;;;;;;23.59;100.00;100414.47;5026996;28;20090;-86
2023/09/24 08:20:40;;;;;;;9.05;1.65;;;;;;;24.40;100.00;100509.22;5030704;28;20063;-89
2023/09/24 08:23:06;;;;;;;0.57;0.55;;;;;;;24.39;100.00;100487.81;5032445;28;20042;-85
2023/09/24 08:25:32;;;;;;;0.77;0.77;;;;;;;23.76;100.00;100395.72;5027680;28;20053;-88
2023/09/24 08:27:58;;;;;;;1.88;1.35;;;;;;;23.96;100.00;100399.94;5021054;28;20409;-88
2023/09/24 08:30:24;;;;;;;1.00;0.75;;;;;;;24.85;100.00;100498.66;5048300;28;20048;-89
2023/09/24 08:32:50;;;;;;;1.55;1.27;;;;;;;24.36;100.00;100429.00;5056378;28;20039;-89
2023/09/24 08:35:15;;;;;;;0.63;0.60;;;;;;;24.48;100.00;100455.16;5047127;28;20607;-86
2023/09/24 08:37:41;;;;;;;0.47;0.47;;;;;;;24.21;100.00;100401.25;5046386;28;20072;-86
2023/09/24 08:40:09;;;;;;;0.80;0.80;;;;;;;24.74;100.00;100471.56;5047011;28;20083;-87
2023/09/24 08:42:36;;;;;;;0.70;0.50;;;;;;;24.32;100.00;100404.16;5046625;28;20033;-87
2023/09/24 08:45:10;;;;;;;1.33;1.25;;;;;;;24.98;100.00;100486.25;5045937;28;20044;-85
2023/09/24 08:47:40;;;;;;;0.80;0.70;;;;;;;25.14;100.00;100482.66;5069649;28;20496;-85
2023/09/24 08:50:07;;;;;;;1.25;1.15;;;;;;;25.27;100.00;100502.47;5041238;28;20045;-88
2023/09/24 08:52:40;;;;;;;1.40;1.08;;;;;;;24.90;100.00;100412.47;5045514;28;20049;-87
2023/09/24 08:55:10;;;;;;;2.28;2.17;;;;;;;25.24;100.00;100495.47;5050574;28;20044;-88
2023/09/24 08:57:37;;;;;;;0.38;0.38;;;;;;;25.27;100.00;100492.59;5063967;28;20407;-88
2023/09/24 09:00:06;;;;;;;2.00;1.02;;;;;;;25.37;100.00;100500.97;5053413;28;20028;-85
2023/09/24 09:02:32;;;;;;;1.70;1.60;;;;;;;25.28;100.00;100488.94;5050098;28;20037;-85
2023/09/24 09:04:59;;;;;;;1.63;1.52;;;;;;;25.33;100.00;100485.97;5021383;28;20532;-85
2023/09/24 09:07:24;;;;;;;0.93;0.80;;;;;;;24.98;100.00;100412.88;5026480;28;20123;-88
2023/09/24 09:10:04;;;;;;;2.30;1.52;;;;;;;25.61;100.00;100493.22;5025708;28;20069;-88
2023/09/24 09:12:30;;;;;;;1.02;0.98;;;;;;;25.48;100.00;100457.31;5026448;28;20051;-89
2023/09/24 09:14:56;;;;;;;2.28;1.55;;;;;;;25.28;100.00;100404.81;5026779;28;20476;-85
2023/09/24 09:17:22;;;;;;;2.17;1.75;;;;;;;25.89;100.00;100464.66;5025317;28;20041;-88
2023/09/24 09:19:52;;;;;;;1.05;0.95;;;;;;;26.14;100.00;100496.25;5023193;28;20047;-87
2023/09/24 09:22:19;;;;;;;1.05;0.60;;;;;;;26.32;100.00;100491.53;5062031;28;20040;-88
2023/09/24 09:24:47;;;;;;;0.80;0.75;;;;;;;26.42;100.00;100498.03;5062089;28;20098;-88
2023/09/24 09:27:12;;;;;;;0.63;0.52;;;;;;;26.46;100.00;100479.88;5058674;28;20032;-90
2023/09/24 09:29:38;;;;;;;0.35;0.35;;;;;;;25.97;100.00;100407.72;5060140;28;20037;-87
2023/09/24 09:32:03;;;;;;;0.70;0.70;;;;;;;26.62;100.00;100487.81;5064285;28;20056;-86
2023/09/24 09:34:29;;;;;;;0.50;0.50;;;;;;;26.74;100.00;100477.09;5049540;28;20102;-89
2023/09/24 09:37:15;;;;;;;1.38;1.30;;;;;;;26.23;100.00;100409.56;5050943;28;20072;-86
2023/09/24 09:39:41;;;;;;;1.27;0.88;;;;;;;26.73;100.00;100472.66;5050234;28;20041;-88
2023/09/24 09:42:07;;;;;;;2.00;1.80;;;;;;;26.72;100.00;100472.78;5049253;28;20037;-87
2023/09/24 09:44:36;;;;;;;2.67;1.98;;;;;;;26.80;100.00;100453.41;5049947;28;20477;-86
2023/09/24 09:47:07;;;;;;;1.42;1.35;;;;;;;26.68;100.00;100412.03;5026473;28;20060;-86
2023/09/24 09:49:33;;;;;;;1.75;1.25;;;;;;;26.63;100.00;100393.50;5048847;28;20040;-88
2023/09/24 09:52:02;;;;;;;0.32;0.32;;;;;;;26.81;100.00;100460.53;5049462;28;20037;-89
2023/09/24 09:54:36;;;;;;;0.32;0.32;;;;;;;26.82;100.00;100420.03;5049508;28;20040;-87
2023/09/24 09:57:02;;;;;;;1.60;1.48;;;;;;;27.02;100.00;100425.88;5062288;28;20109;-86
2023/09/24 09:59:28;;;;;;;4.60;1.17;;;;;;;26.94;100.00;100400.34;5031647;28;20040;-87
2023/09/24 10:01:54;;;;;;;1.30;1.15;;;;;;;27.65;100.00;100508.69;5011421;28;20481;-86
2023/09/24 10:04:22;;;;;;;0.30;0.30;;;;;;;26.95;100.00;100366.22;5011031;28;20614;-87
2023/09/24 10:06:48;;;;;;;1.75;0.98;;;;;;;27.24;100.00;100419.94;5011007;28;20037;-86
2023/09/24 10:09:32;;;;;;;1.58;1.48;;;;;;;27.85;100.00;100504.59;5010700;28;20036;-88
2023/09/24 10:11:58;;;;;;;0.80;0.60;;;;;;;27.82;100.00;100467.03;5030474;28;20465;-87
2023/09/24 10:14:55;;;;;;;1.40;1.30;;;;;;;28.09;100.00;100501.13;5031989;28;20117;-87
2023/09/24 10:17:25;;;;;;;0.28;0.28;;;;;;;27.25;100.00;100340.81;5029095;28;20050;-88
2023/09/24 10:20:08;;;;;;;2.15;2.03;;;;;;;28.19;100.00;100499.50;5029110;28;20045;-87
2023/09/24 10:22:37;;;;;;;0.73;0.70;;;;;;;28.09;100.00;100463.34;5029635;28;20139;-87
2023/09/24 10:25:33;;;;;;;0.20;0.20;;;;;;;28.34;100.00;100481.31;5047415;28;20041;-86
2023/09/24 10:28:07;;;;;;;1.20;1.08;;;;;;;28.71;100.00;100493.00;5046261;28;20037;-89
2023/09/24 10:31:05;;;;;;;2.13;0.93;;;;;;;28.87;100.00;100484.59;5040330;28;20132;-87
2023/09/24 10:33:58;;;;;;;1.20;1.13;;;;;;;29.10;100.00;100499.06;5047825;28;20127;-86
2023/09/24 10:36:33;;;;;;;0.47;0.47;;;;;;;28.77;100.00;100419.59;5048548;28;20052;-87
2023/09/24 10:39:13;;;;;;;0.32;0.30;;;;;;;29.04;100.00;100419.31;5048855;28;20029;-87
2023/09/24 10:42:16;;;;;;;2.92;1.73;;;;;;;29.60;100.00;100491.59;5036879;28;20546;-85
2023/09/24 10:44:41;;;;;;;0.47;0.47;;;;;;;29.14;100.00;100449.22;5031032;28;20052;-87
2023/09/24 10:47:24;;;;;;;1.45;0.90;;;;;;;29.47;100.00;100431.34;5029257;28;20041;-89
2023/09/24 10:50:05;;;;;;;3.97;1.95;;;;;;;30.08;100.00;100490.53;5028527;28;20049;-87
2023/09/24 10:52:54;;;;;;;0.22;0.22;;;;;;;30.08;100.00;100490.53;5028536;28;20045;-88
2023/09/24 10:55:33;;;;;;;2.63;2.42;;;;;;;29.86;99.99;100494.97;5024610;28;20044;-89
2023/09/24 10:58:15;;;;;;;2.35;1.60;;;;;;;29.74;99.41;100411.25;5012106;28;20049;-88
2023/09/24 11:00:44;;;;;;;0.80;0.67;;;;;;;29.62;98.38;100392.28;5028441;28;20049;-87
2023/09/24 11:03:14;;;;;;;0.32;0.32;;;;;;;30.39;96.43;100480.81;5010366;28;20882;-88
2023/09/24 11:05:39;;;;;;;3.08;2.83;;;;;;;30.07;94.55;100488.81;5029208;28;20029;-85
2023/09/24 11:08:04;;;;;;;0.30;0.30;;;;;;;29.71;92.62;100404.22;5012507;28;20134;-87
2023/09/24 11:10:30;;;;;;;0.50;0.50;;;;;;;29.69;90.35;100391.78;5029218;28;20050;-88
2023/09/24 11:13:01;;;;;;;1.10;1.00;;;;;;;29.57;91.92;100344.94;5012593;28;20058;-86
2023/09/24 11:15:36;;;;;;;0.70;0.70;;;;;;;29.83;89.74;100419.47;5031430;28;20477;-86
2023/09/24 11:18:02;;;;;;;0.50;0.50;;;;;;;29.61;91.38;100401.34;5031558;28;20038;-86
2023/09/24 11:20:31;;;;;;;0.50;0.50;;;;;;;29.69;89.98;100394.50;5041397;28;20072;-87
2023/09/24 11:22:59;;;;;;;0.30;0.30;;;;;;;30.09;90.26;100459.78;5047745;28;20053;-87
2023/09/24 11:25:25;;;;;;;0.43;0.43;;;;;;;29.57;87.92;100389.09;5036124;28;20049;-86